createdAt,value
2019-02-27T00:01:24.688Z,16.70
2019-02-27T00:03:53.744Z,18.77
2019-02-27T00:06:22.777Z,15.00
2019-02-27T00:08:51.923Z,13.07
2019-02-27T00:11:21.142Z,15.23
2019-02-27T00:13:50.178Z,19.13
2019-02-27T00:16:19.195Z,17.80
2019-02-27T00:18:48.394Z,18.93
2019-02-27T00:21:17.320Z,13.37
2019-02-27T00:23:46.768Z,13.83
2019-02-27T00:26:15.838Z,16.67
2019-02-27T00:28:45.028Z,15.47
2019-02-27T00:31:14.013Z,14.20
2019-02-27T00:33:43.103Z,17.63
2019-02-27T00:36:12.953Z,13.97
2019-02-27T00:38:42.078Z,26.30
2019-02-27T00:41:12.814Z,15.00
2019-02-27T00:43:41.979Z,14.13
2019-02-27T00:46:13.305Z,14.93
2019-02-27T00:48:41.902Z,17.77
2019-02-27T00:51:12.041Z,18.87
2019-02-27T00:53:41.680Z,11.93
2019-02-27T00:56:12.251Z,14.87
2019-02-27T00:58:42.048Z,21.07
2019-02-27T01:01:12.607Z,16.63
2019-02-27T01:03:41.965Z,16.50
2019-02-27T01:06:12.249Z,13.00
2019-02-27T01:08:41.952Z,14.90
2019-02-27T01:11:11.159Z,15.60
2019-02-27T01:13:40.168Z,15.63
2019-02-27T01:16:09.247Z,15.40
2019-02-27T01:18:38.287Z,18.20
2019-02-27T01:21:07.355Z,14.93
2019-02-27T01:23:36.624Z,13.50
2019-02-27T01:26:05.702Z,13.67
2019-02-27T01:28:34.790Z,10.53
2019-02-27T01:31:03.970Z,18.03
2019-02-27T01:33:37.727Z,13.77
2019-02-27T01:36:03.865Z,13.53
2019-02-27T01:38:32.858Z,14.00
2019-02-27T01:41:01.927Z,12.87
2019-02-27T01:43:31.286Z,17.30
2019-02-27T01:46:00.539Z,12.77
2019-02-27T01:48:29.691Z,17.67
2019-02-27T01:50:58.664Z,14.97
2019-02-27T01:53:27.635Z,12.67
2019-02-27T01:55:56.974Z,14.07
2019-02-27T01:58:25.959Z,14.40
2019-02-27T02:00:56.232Z,15.87
2019-02-27T02:03:25.780Z,12.30
2019-02-27T02:05:58.772Z,15.80
2019-02-27T02:08:25.567Z,16.07
2019-02-27T02:10:55.647Z,14.87
2019-02-27T02:13:48.004Z,14.30
2019-02-27T02:16:34.388Z,17.10
2019-02-27T02:19:44.162Z,16.40
2019-02-27T02:23:02.970Z,11.30
2019-02-27T02:26:01.874Z,12.83
2019-02-27T02:29:26.919Z,16.77
2019-02-27T02:32:33.259Z,17.67
2019-02-27T02:35:35.381Z,18.73
2019-02-27T02:38:30.674Z,17.30
2019-02-27T02:41:33.596Z,12.67
2019-02-27T02:44:27.767Z,10.93
2019-02-27T02:47:37.227Z,14.60
2019-02-27T02:50:39.748Z,14.23
2019-02-27T02:53:42.311Z,10.83
2019-02-27T02:56:48.296Z,14.17
2019-02-27T02:59:49.648Z,13.23
2019-02-27T03:02:50.420Z,14.90
2019-02-27T03:05:31.035Z,13.53
2019-02-27T03:08:21.277Z,12.73
2019-02-27T03:11:22.399Z,15.40
2019-02-27T03:14:27.753Z,10.13
2019-02-27T03:17:42.270Z,17.30
2019-02-27T03:21:01.248Z,14.23
2019-02-27T03:23:58.559Z,12.67
2019-02-27T03:26:53.035Z,12.37
2019-02-27T03:29:57.097Z,13.57
2019-02-27T03:33:01.525Z,11.23
2019-02-27T03:36:17.593Z,11.07
2019-02-27T03:39:25.190Z,11.63
2019-02-27T03:42:53.231Z,14.60
2019-02-27T03:45:47.196Z,9.83
2019-02-27T03:48:50.781Z,10.10
2019-02-27T03:51:49.075Z,11.90
2019-02-27T03:54:39.779Z,9.67
2019-02-27T03:57:22.330Z,11.63
2019-02-27T04:00:19.805Z,10.63
2019-02-27T04:03:18.161Z,12.10
2019-02-27T04:05:56.170Z,8.63
2019-02-27T04:08:56.966Z,15.00
2019-02-27T04:11:26.467Z,14.13
2019-02-27T04:14:03.367Z,10.20
2019-02-27T04:16:29.257Z,11.77
2019-02-27T04:19:02.723Z,10.00
2019-02-27T04:21:30.370Z,11.57
2019-02-27T04:23:59.510Z,14.03
2019-02-27T04:26:28.538Z,10.90
2019-02-27T04:28:57.508Z,10.50
2019-02-27T04:31:29.660Z,10.87
2019-02-27T04:34:00.358Z,14.10
2019-02-27T04:36:28.198Z,14.23
2019-02-27T04:38:57.219Z,13.07
2019-02-27T04:41:26.311Z,17.13
2019-02-27T04:43:55.214Z,10.50
2019-02-27T04:46:24.207Z,13.33
2019-02-27T04:48:53.166Z,11.90
2019-02-27T04:51:22.090Z,10.43
2019-02-27T04:53:51.134Z,12.67
2019-02-27T04:56:23.152Z,16.17
2019-02-27T04:58:51.098Z,10.13
2019-02-27T05:01:20.035Z,18.13
2019-02-27T05:03:49.304Z,13.83
2019-02-27T05:06:18.280Z,12.03
2019-02-27T05:08:47.415Z,9.57
2019-02-27T05:11:16.547Z,12.87
2019-02-27T05:13:45.458Z,11.03
2019-02-27T05:16:14.794Z,12.37
2019-02-27T05:18:43.927Z,11.23
2019-02-27T05:21:12.946Z,12.47
2019-02-27T05:23:41.999Z,12.57
2019-02-27T05:26:11.083Z,13.03
2019-02-27T05:28:40.126Z,14.67
2019-02-27T05:31:09.142Z,11.07
2019-02-27T05:33:39.875Z,13.70
2019-02-27T05:36:09.570Z,12.80
2019-02-27T05:38:41.005Z,12.40
2019-02-27T05:41:09.503Z,11.60
2019-02-27T05:43:38.841Z,9.63
2019-02-27T05:46:08.607Z,9.00
2019-02-27T05:48:37.742Z,11.57
2019-02-27T05:51:07.512Z,12.17
2019-02-27T05:53:37.459Z,12.27
2019-02-27T05:56:06.546Z,20.12
2019-02-27T05:58:35.639Z,16.13
2019-02-27T06:01:05.783Z,14.20
2019-02-27T06:03:34.921Z,12.00
2019-02-27T06:06:04.118Z,14.53
2019-02-27T06:08:36.798Z,13.70
2019-02-27T06:11:04.237Z,13.53
2019-02-27T06:13:33.437Z,11.30
2019-02-27T06:16:03.991Z,15.03
2019-02-27T06:18:34.246Z,10.13
2019-02-27T06:21:03.531Z,14.70
2019-02-27T06:23:35.422Z,12.20
2019-02-27T06:26:03.687Z,10.50
2019-02-27T06:28:32.974Z,10.07
2019-02-27T06:31:02.720Z,14.13
2019-02-27T06:33:32.340Z,11.13
2019-02-27T06:36:01.496Z,8.33
2019-02-27T06:38:30.489Z,15.27
2019-02-27T06:40:59.542Z,11.43
2019-02-27T06:43:28.524Z,9.50
2019-02-27T06:45:57.600Z,11.77
2019-02-27T06:48:26.775Z,13.20
2019-02-27T06:50:58.221Z,14.43
2019-02-27T06:53:26.650Z,9.40
2019-02-27T06:55:55.690Z,10.63
2019-02-27T06:58:24.788Z,15.97
2019-02-27T07:00:53.770Z,11.83
2019-02-27T07:03:22.996Z,15.00
2019-02-27T07:05:52.251Z,12.37
2019-02-27T07:08:21.592Z,11.30
2019-02-27T07:10:50.599Z,12.03
2019-02-27T07:13:21.583Z,10.07
2019-02-27T07:15:51.011Z,9.27
2019-02-27T07:18:21.403Z,9.60
2019-02-27T07:20:50.985Z,12.53
2019-02-27T07:23:23.601Z,12.53
2019-02-27T07:25:51.064Z,11.73
2019-02-27T07:28:20.187Z,13.13
2019-02-27T07:30:49.403Z,13.40
2019-02-27T07:33:18.502Z,11.30
2019-02-27T07:35:47.697Z,11.80
2019-02-27T07:38:21.384Z,9.10
2019-02-27T07:40:47.725Z,12.70
2019-02-27T07:43:17.024Z,12.23
2019-02-27T07:45:46.242Z,10.97
2019-02-27T07:48:15.467Z,8.43
2019-02-27T07:50:48.292Z,9.37
2019-02-27T07:53:17.700Z,11.33
2019-02-27T07:55:47.399Z,11.67
2019-02-27T07:58:16.687Z,11.00
2019-02-27T08:00:47.166Z,13.93
2019-02-27T08:03:16.585Z,11.60
2019-02-27T08:05:45.582Z,12.27
2019-02-27T08:08:14.892Z,11.53
2019-02-27T08:10:45.303Z,10.47
2019-02-27T08:13:14.771Z,10.73
2019-02-27T08:15:43.809Z,8.67
2019-02-27T08:18:12.905Z,11.60
2019-02-27T08:20:42.092Z,12.87
2019-02-27T08:23:11.309Z,11.97
2019-02-27T08:25:40.353Z,16.77
2019-02-27T08:28:09.564Z,10.90
2019-02-27T08:30:38.947Z,13.00
2019-02-27T08:33:08.963Z,10.50
2019-02-27T08:35:38.063Z,11.93
2019-02-27T08:38:07.184Z,18.03
2019-02-27T08:40:36.311Z,17.50
2019-02-27T08:43:05.444Z,12.73
2019-02-27T08:45:35.266Z,14.13
2019-02-27T08:48:04.495Z,14.77
2019-02-27T08:50:33.679Z,12.87
2019-02-27T08:53:02.822Z,18.10
2019-02-27T08:55:31.863Z,12.23
2019-02-27T08:58:04.445Z,18.70
2019-02-27T09:00:33.891Z,12.87
2019-02-27T09:03:03.763Z,16.23
2019-02-27T09:05:32.933Z,11.57
2019-02-27T09:08:01.936Z,14.53
2019-02-27T09:10:31.041Z,16.17
2019-02-27T09:13:05.318Z,19.47
2019-02-27T09:15:31.120Z,13.03
2019-02-27T09:18:01.722Z,16.57
2019-02-27T09:20:31.393Z,15.40
2019-02-27T09:23:00.348Z,14.10
2019-02-27T09:25:32.209Z,20.90
2019-02-27T09:28:03.493Z,15.83
2019-02-27T09:30:32.571Z,17.63
2019-02-27T09:33:01.747Z,16.60
2019-02-27T09:35:34.486Z,18.57
2019-02-27T09:38:01.787Z,17.23
2019-02-27T09:40:30.976Z,18.50
2019-02-27T09:42:59.939Z,16.33
2019-02-27T09:45:30.444Z,20.13
2019-02-27T09:48:00.553Z,21.50
2019-02-27T09:50:37.603Z,15.90
2019-02-27T09:53:06.701Z,17.77
2019-02-27T09:55:35.645Z,16.23
2019-02-27T09:58:09.935Z,18.80
2019-02-27T10:00:37.554Z,21.33
2019-02-27T10:03:06.704Z,17.83
2019-02-27T10:05:36.644Z,21.53
2019-02-27T10:08:07.611Z,20.97
2019-02-27T10:10:36.941Z,17.70
2019-02-27T10:13:06.039Z,19.20
2019-02-27T10:15:35.155Z,19.10
2019-02-27T10:18:04.479Z,19.23
2019-02-27T10:20:36.809Z,21.53
2019-02-27T10:23:04.400Z,20.00
2019-02-27T10:25:33.505Z,21.20
2019-02-27T10:28:04.335Z,20.17
2019-02-27T10:30:33.520Z,20.30
2019-02-27T10:33:03.479Z,21.57
2019-02-27T10:35:34.668Z,23.73
2019-02-27T10:38:03.911Z,24.60
2019-02-27T10:40:32.971Z,23.87
2019-02-27T10:43:02.066Z,20.27
2019-02-27T10:45:31.207Z,22.87
2019-02-27T10:48:00.244Z,21.77
2019-02-27T10:50:29.359Z,22.90
2019-02-27T10:52:58.299Z,22.23
2019-02-27T10:55:27.374Z,22.37
2019-02-27T10:57:56.503Z,27.47
2019-02-27T11:00:35.460Z,24.00
2019-02-27T11:03:04.880Z,26.00
2019-02-27T11:05:34.258Z,22.63
2019-02-27T11:08:03.556Z,25.80
2019-02-27T11:10:32.959Z,23.77
2019-02-27T11:13:05.485Z,25.50
2019-02-27T11:15:33.210Z,24.60
2019-02-27T11:18:05.520Z,24.70
2019-02-27T11:20:33.162Z,26.33
2019-02-27T11:23:06.468Z,26.67
2019-02-27T11:25:33.189Z,26.03
2019-02-27T11:28:02.325Z,24.07
2019-02-27T11:30:35.985Z,24.77
2019-02-27T11:33:04.046Z,28.30
2019-02-27T11:35:33.232Z,28.83
2019-02-27T11:38:02.269Z,26.20
2019-02-27T11:40:31.301Z,24.47
2019-02-27T11:43:01.095Z,27.23
2019-02-27T11:45:30.344Z,28.70
2019-02-27T11:47:59.458Z,23.87
2019-02-27T11:50:28.446Z,28.10
2019-02-27T11:53:01.839Z,23.23
2019-02-27T11:55:28.425Z,26.13
2019-02-27T11:57:57.460Z,28.63
2019-02-27T12:00:27.724Z,25.23
2019-02-27T12:02:57.086Z,26.80
2019-02-27T12:05:30.831Z,25.13
2019-02-27T12:07:57.291Z,23.43
2019-02-27T12:10:27.416Z,23.93
2019-02-27T12:12:59.696Z,27.10
2019-02-27T12:15:27.439Z,26.27
2019-02-27T12:18:00.557Z,20.73
2019-02-27T12:20:28.250Z,22.93
2019-02-27T12:22:57.271Z,22.83
2019-02-27T12:25:29.018Z,22.13
2019-02-27T12:27:57.265Z,23.27
2019-02-27T12:30:26.730Z,21.70
2019-02-27T12:32:56.799Z,22.33
2019-02-27T12:35:27.891Z,21.37
2019-02-27T12:37:57.111Z,22.70
2019-02-27T12:40:26.263Z,19.93
2019-02-27T12:42:55.475Z,20.80
2019-02-27T12:45:26.505Z,20.43
2019-02-27T12:47:55.875Z,19.17
2019-02-27T12:50:26.851Z,21.87
2019-02-27T12:52:56.312Z,23.07
2019-02-27T12:55:25.675Z,20.03
2019-02-27T12:57:54.720Z,19.07
2019-02-27T13:00:26.139Z,21.00
2019-02-27T13:02:55.354Z,21.23
2019-02-27T13:05:27.358Z,17.97
2019-02-27T13:07:55.339Z,19.97
2019-02-27T13:10:24.564Z,20.80
2019-02-27T13:12:53.729Z,15.20
2019-02-27T13:15:23.465Z,18.80
2019-02-27T13:17:56.178Z,17.17
2019-02-27T13:20:24.851Z,20.97
2019-02-27T13:22:55.650Z,15.17
2019-02-27T13:25:24.939Z,15.03
2019-02-27T13:27:55.833Z,13.40
2019-02-27T13:30:27.545Z,14.33
2019-02-27T13:33:00.709Z,12.57
2019-02-27T13:35:28.702Z,13.17
2019-02-27T13:37:59.490Z,16.17
2019-02-27T13:40:28.655Z,14.40
2019-02-27T13:43:01.065Z,11.70
2019-02-27T13:45:28.709Z,14.00
2019-02-27T13:47:59.093Z,13.77
2019-02-27T13:50:28.215Z,14.23
2019-02-27T13:52:57.424Z,11.97
2019-02-27T13:55:26.575Z,10.67
2019-02-27T13:57:58.759Z,13.97
2019-02-27T14:00:28.395Z,14.30
2019-02-27T14:02:57.732Z,12.57
2019-02-27T14:05:26.915Z,11.70
2019-02-27T14:07:58.478Z,15.27
2019-02-27T14:10:27.565Z,13.13
2019-02-27T14:12:56.713Z,11.67
2019-02-27T14:15:27.265Z,11.43
2019-02-27T14:17:56.679Z,11.43
2019-02-27T14:20:26.961Z,10.87
2019-02-27T14:22:56.323Z,11.60
2019-02-27T14:25:31.049Z,12.10
2019-02-27T14:27:57.261Z,15.97
2019-02-27T14:30:28.824Z,13.20
2019-02-27T14:32:57.816Z,12.47
2019-02-27T14:35:26.974Z,11.60
2019-02-27T14:37:56.693Z,12.40
2019-02-27T14:40:26.018Z,10.67
2019-02-27T14:42:55.271Z,11.00
2019-02-27T14:45:24.539Z,11.97
2019-02-27T14:47:53.598Z,9.43
2019-02-27T14:50:22.966Z,10.37
2019-02-27T14:52:52.095Z,12.83
2019-02-27T14:55:21.173Z,12.40
2019-02-27T14:57:51.344Z,11.93
2019-02-27T15:00:28.367Z,10.30
2019-02-27T15:02:57.553Z,14.17
2019-02-27T15:05:26.754Z,13.17
2019-02-27T15:07:55.787Z,13.60
2019-02-27T15:10:24.945Z,13.67
2019-02-27T15:12:55.595Z,12.67
2019-02-27T15:15:26.556Z,13.97
2019-02-27T15:17:55.859Z,13.87
2019-02-27T15:20:25.806Z,11.17
2019-02-27T15:22:54.908Z,10.97
2019-02-27T15:25:23.944Z,14.60
2019-02-27T15:27:58.194Z,13.83
2019-02-27T15:30:25.263Z,13.57
2019-02-27T15:32:54.159Z,16.37
2019-02-27T15:35:23.439Z,13.23
2019-02-27T15:37:52.531Z,13.33
2019-02-27T15:40:22.627Z,11.77
2019-02-27T15:42:52.167Z,14.00
2019-02-27T15:45:21.444Z,16.53
2019-02-27T15:47:50.763Z,12.77
2019-02-27T15:50:22.952Z,11.47
2019-02-27T15:52:51.478Z,14.13
2019-02-27T15:55:20.638Z,14.13
2019-02-27T15:57:53.509Z,14.50
2019-02-27T16:00:21.660Z,13.97
2019-02-27T16:02:50.742Z,16.13
2019-02-27T16:05:19.910Z,13.63
2019-02-27T16:07:49.844Z,14.77
2019-02-27T16:10:20.378Z,15.00
2019-02-27T16:12:49.426Z,11.90
2019-02-27T16:15:18.627Z,15.17
2019-02-27T16:17:47.892Z,11.33
2019-02-27T16:20:17.556Z,11.20
2019-02-27T16:22:46.578Z,12.33
2019-02-27T16:25:19.895Z,11.50
2019-02-27T16:27:48.725Z,10.97
2019-02-27T16:30:23.629Z,8.83
2019-02-27T16:32:52.778Z,15.10
2019-02-27T16:35:21.998Z,12.30
2019-02-27T16:37:56.631Z,14.50
2019-02-27T16:40:22.162Z,13.60
2019-02-27T16:42:51.233Z,11.00
2019-02-27T16:45:22.398Z,16.23
2019-02-27T16:47:53.982Z,14.90
2019-02-27T16:50:24.736Z,13.20
2019-02-27T16:52:54.347Z,11.37
2019-02-27T16:55:24.048Z,11.63
2019-02-27T16:57:56.488Z,13.27
2019-02-27T17:00:26.172Z,11.93
2019-02-27T17:02:56.983Z,12.43
2019-02-27T17:05:26.476Z,13.00
2019-02-27T17:08:00.680Z,12.30
2019-02-27T17:10:29.377Z,11.40
2019-02-27T17:12:58.890Z,13.87
2019-02-27T17:15:28.133Z,11.47
2019-02-27T17:17:57.056Z,12.23
2019-02-27T17:20:26.239Z,12.47
2019-02-27T17:22:55.378Z,13.40
2019-02-27T17:25:28.971Z,13.33
2019-02-27T17:27:55.539Z,12.80
2019-02-27T17:30:26.542Z,11.43
2019-02-27T17:32:55.618Z,13.23
2019-02-27T17:35:24.812Z,12.37
2019-02-27T17:37:54.255Z,10.93
2019-02-27T17:40:23.572Z,12.87
2019-02-27T17:42:53.581Z,9.83
2019-02-27T17:45:23.716Z,9.73
2019-02-27T17:47:52.916Z,10.53
2019-02-27T17:50:22.217Z,15.40
2019-02-27T17:52:51.687Z,10.60
2019-02-27T17:55:21.047Z,10.87
2019-02-27T17:57:50.344Z,11.07
2019-02-27T18:00:31.209Z,9.53
2019-02-27T18:03:04.979Z,11.33
2019-02-27T18:05:33.269Z,10.77
2019-02-27T18:08:03.474Z,14.73
2019-02-27T18:10:37.206Z,20.20
2019-02-27T18:13:03.620Z,12.33
2019-02-27T18:15:32.824Z,14.27
2019-02-27T18:18:02.048Z,10.63
2019-02-27T18:20:32.046Z,14.50
2019-02-27T18:23:01.659Z,19.33
2019-02-27T18:25:30.882Z,15.23
2019-02-27T18:27:59.989Z,19.40
2019-02-27T18:30:29.198Z,18.30
2019-02-27T18:32:58.410Z,13.57
2019-02-27T18:35:29.581Z,12.07
2019-02-27T18:37:58.648Z,10.87
2019-02-27T18:40:29.760Z,12.33
2019-02-27T18:42:58.927Z,15.80
2019-02-27T18:45:28.059Z,16.80
2019-02-27T18:47:58.763Z,15.50
2019-02-27T18:50:28.171Z,11.30
2019-02-27T18:52:57.347Z,18.20
2019-02-27T18:55:30.829Z,12.97
2019-02-27T18:57:57.385Z,15.57
2019-02-27T19:00:26.583Z,16.03
2019-02-27T19:02:56.009Z,18.60
2019-02-27T19:05:25.098Z,17.03
2019-02-27T19:07:55.203Z,12.93
2019-02-27T19:10:24.615Z,18.23
2019-02-27T19:12:53.803Z,17.23
2019-02-27T19:15:22.992Z,18.20
2019-02-27T19:17:52.164Z,20.23
2019-02-27T19:20:24.865Z,16.70
2019-02-27T19:22:54.350Z,17.60
2019-02-27T19:25:23.818Z,16.20
2019-02-27T19:28:24.852Z,15.80
2019-02-27T19:30:54.101Z,13.17
2019-02-27T19:33:23.275Z,15.67
2019-02-27T19:38:59.905Z,18.40
2019-02-27T19:41:29.596Z,22.47
2019-02-27T19:44:01.175Z,27.33
2019-02-27T19:46:49.564Z,24.33
2019-02-27T19:49:22.171Z,23.57
2019-02-27T19:51:54.630Z,19.30
2019-02-27T19:54:25.122Z,18.13
2019-02-27T19:56:56.921Z,20.10
2019-02-27T20:02:28.227Z,19.97
2019-02-27T20:04:59.839Z,13.23
2019-02-27T20:07:29.040Z,12.67
2019-02-27T20:10:01.063Z,15.88
2019-02-27T20:12:38.884Z,12.50
2019-02-27T20:15:17.549Z,10.33
2019-02-27T20:17:43.243Z,13.27
2019-02-27T20:20:13.679Z,14.87
2019-02-27T20:22:43.451Z,10.20
2019-02-27T20:25:13.699Z,13.17
2019-02-27T20:28:15.403Z,16.57
2019-02-27T20:30:50.669Z,17.20
2019-02-27T20:33:22.194Z,14.97
2019-02-27T20:35:52.395Z,11.10
2019-02-27T20:38:21.507Z,12.90
2019-02-27T20:41:15.599Z,14.23
2019-02-27T20:43:44.839Z,17.70
2019-02-27T20:46:16.904Z,13.37
2019-02-27T20:48:46.542Z,14.87
2019-02-27T20:51:15.697Z,13.20
2019-02-27T20:53:45.228Z,11.47
2019-02-27T20:56:35.895Z,14.20
2019-02-27T20:59:04.604Z,14.13
2019-02-27T21:01:46.662Z,16.53
2019-02-27T21:04:12.019Z,12.80
2019-02-27T21:06:48.451Z,19.37
2019-02-27T21:09:45.164Z,12.37
2019-02-27T21:12:13.724Z,11.03
2019-02-27T21:14:42.864Z,14.10
2019-02-27T21:17:12.150Z,18.93
2019-02-27T21:19:41.323Z,15.57
2019-02-27T21:22:10.744Z,17.67
2019-02-27T21:24:40.493Z,17.10
2019-02-27T21:27:10.352Z,15.33
2019-02-27T21:29:40.228Z,15.57
2019-02-27T21:32:10.452Z,16.50
2019-02-27T21:34:39.661Z,13.80
2019-02-27T21:37:09.988Z,21.27
2019-02-27T21:39:40.204Z,14.17
2019-02-27T21:42:09.285Z,15.23
2019-02-27T21:44:39.227Z,20.80
2019-02-27T21:47:08.336Z,19.87
2019-02-27T21:49:37.450Z,17.97
2019-02-27T21:52:06.475Z,21.87
2019-02-27T21:54:39.228Z,18.23
2019-02-27T21:57:06.427Z,16.13
2019-02-27T21:59:36.355Z,19.30
2019-02-27T22:02:06.343Z,14.37
2019-02-27T22:04:35.487Z,17.57
2019-02-27T22:07:04.636Z,17.63
2019-02-27T22:09:33.623Z,19.17
2019-02-27T22:12:02.840Z,17.87
2019-02-27T22:14:32.001Z,19.23
2019-02-27T22:17:01.691Z,24.33
2019-02-27T22:19:31.776Z,19.80
2019-02-27T22:22:01.716Z,17.43
2019-02-27T22:24:30.819Z,20.90
2019-02-27T22:26:59.863Z,18.87
2019-02-27T22:29:29.026Z,17.40
2019-02-27T22:31:58.178Z,17.50
2019-02-27T22:34:28.008Z,14.93
2019-02-27T22:36:57.965Z,20.53
2019-02-27T22:39:27.331Z,19.87
2019-02-27T22:41:56.449Z,20.83
2019-02-27T22:44:26.294Z,21.77
2019-02-27T22:46:56.363Z,21.00
2019-02-27T22:49:25.401Z,21.37
2019-02-27T22:51:54.455Z,21.40
2019-02-27T22:54:23.491Z,21.00
2019-02-27T22:56:52.733Z,19.93
2019-02-27T22:59:21.828Z,25.27
2019-02-27T23:01:54.799Z,21.33
2019-02-27T23:04:24.652Z,24.10
2019-02-27T23:06:53.789Z,20.07
2019-02-27T23:09:25.681Z,20.67
2019-02-27T23:11:53.836Z,24.47
2019-02-27T23:14:23.023Z,21.90
2019-02-27T23:16:52.262Z,22.73
2019-02-27T23:19:21.384Z,25.17
2019-02-27T23:21:50.488Z,18.50
2019-02-27T23:24:19.667Z,22.67
2019-02-27T23:26:54.352Z,21.87
2019-02-27T23:29:19.808Z,21.40
2019-02-27T23:31:48.890Z,22.80
2019-02-27T23:34:18.032Z,18.87
2019-02-27T23:36:47.404Z,24.53
2019-02-27T23:39:16.740Z,24.83
2019-02-27T23:41:45.912Z,26.03
2019-02-27T23:44:15.303Z,25.43
2019-02-27T23:46:49.733Z,24.50
2019-02-27T23:49:15.431Z,26.57
2019-02-27T23:51:47.713Z,25.43
2019-02-27T23:54:15.972Z,24.93
2019-02-27T23:56:45.221Z,25.60
2019-02-27T23:59:14.316Z,21.07
